createdAt,value
2024-01-25T00:02:38.891Z,99595.31
2024-01-25T00:05:41.526Z,99586.53
2024-01-25T00:08:44.625Z,99599.72
2024-01-25T00:11:47.116Z,99596.19
2024-01-25T00:14:49.951Z,99598.84
2024-01-25T00:17:52.637Z,99602.38
2024-01-25T00:20:55.613Z,99605.91
2024-01-25T00:23:58.082Z,99602.38
2024-01-25T00:27:00.913Z,99627.03
2024-01-25T00:30:03.411Z,99623.50
2024-01-25T00:33:06.565Z,99635.81
2024-01-25T00:36:09.935Z,99625.28
2024-01-25T00:39:13.105Z,99642.88
2024-01-25T00:42:16.001Z,99652.56
2024-01-25T00:45:18.774Z,99640.22
2024-01-25T00:48:21.681Z,99630.50
2024-01-25T00:51:24.849Z,99634.03
2024-01-25T00:54:27.883Z,99634.94
2024-01-25T00:57:31.148Z,99628.75
2024-01-25T01:00:34.018Z,99638.44
2024-01-25T01:03:37.826Z,99639.31
2024-01-25T01:06:40.745Z,99644.56
2024-01-25T01:09:43.654Z,99638.44
2024-01-25T01:12:46.468Z,99643.72
2024-01-25T01:15:49.347Z,99644.59
2024-01-25T01:18:51.996Z,99639.31
2024-01-25T01:21:55.040Z,99629.66
2024-01-25T01:24:57.664Z,99645.47
2024-01-25T01:28:00.666Z,99644.63
2024-01-25T01:31:04.004Z,99634.91
2024-01-25T01:34:06.913Z,99643.72
2024-01-25T01:37:09.537Z,99645.50
2024-01-25T01:40:12.591Z,99637.56
2024-01-25T01:43:22.201Z,99638.47
2024-01-25T01:46:39.077Z,99643.72
2024-01-25T01:49:41.779Z,99634.03
2024-01-25T01:52:44.565Z,99628.75
2024-01-25T01:55:47.193Z,99644.59
2024-01-25T01:58:50.224Z,99633.16
2024-01-25T02:01:53.646Z,99646.34
2024-01-25T02:04:56.499Z,99650.75
2024-01-25T02:07:59.001Z,99644.59
2024-01-25T02:11:02.058Z,99642.84
2024-01-25T02:14:04.429Z,99662.16
2024-01-25T02:17:07.127Z,99656.88
2024-01-25T02:20:10.341Z,99657.75
2024-01-25T02:23:13.111Z,99647.19
2024-01-25T02:26:15.943Z,99664.78
2024-01-25T02:29:18.795Z,99668.25
2024-01-25T02:32:21.189Z,99655.09
2024-01-25T02:35:24.081Z,99654.22
2024-01-25T02:38:26.766Z,99658.59
2024-01-25T02:41:33.522Z,99655.94
2024-01-25T02:44:36.006Z,99646.28
2024-01-25T02:47:39.036Z,99661.22
2024-01-25T02:50:41.568Z,99655.97
2024-01-25T02:53:44.292Z,99651.53
2024-01-25T02:56:47.310Z,99662.09
2024-01-25T02:59:50.032Z,99658.56
2024-01-25T03:02:52.900Z,99649.78
2024-01-25T03:05:55.989Z,99640.09
2024-01-25T03:08:58.434Z,99657.66
2024-01-25T03:12:01.214Z,99665.59
2024-01-25T03:15:06.306Z,99666.44
2024-01-25T03:18:09.774Z,99675.22
2024-01-25T03:21:12.225Z,99679.63
2024-01-25T03:24:15.245Z,99677.84
2024-01-25T03:27:17.750Z,99684.00
2024-01-25T03:30:20.465Z,99678.75
2024-01-25T03:33:23.396Z,99695.41
2024-01-25T03:36:26.257Z,99678.72
2024-01-25T03:39:28.664Z,99676.03
2024-01-25T03:42:31.445Z,99686.59
2024-01-25T03:45:34.055Z,99676.94
2024-01-25T03:48:36.747Z,99687.50
2024-01-25T03:51:39.251Z,99691.00
2024-01-25T03:54:42.054Z,99679.56
2024-01-25T03:57:44.689Z,99686.63
2024-01-25T04:00:47.591Z,99681.34
2024-01-25T04:03:50.371Z,99681.38
2024-01-25T04:06:54.155Z,99698.97
2024-01-25T04:09:56.862Z,99693.66
2024-01-25T04:13:01.663Z,99686.66
2024-01-25T04:16:04.524Z,99695.41
2024-01-25T04:19:07.381Z,99709.47
2024-01-25T04:22:09.793Z,99689.28
2024-01-25T04:25:12.559Z,99691.91
2024-01-25T04:28:15.110Z,99698.94
2024-01-25T04:31:18.527Z,99688.41
2024-01-25T04:34:21.241Z,99701.56
2024-01-25T04:37:24.306Z,99682.25
2024-01-25T04:40:26.878Z,99685.72
2024-01-25T04:43:29.722Z,99703.31
2024-01-25T04:46:37.989Z,99700.66
2024-01-25T04:49:41.921Z,99705.06
2024-01-25T04:52:44.396Z,99693.63
2024-01-25T04:55:47.104Z,99691.81
2024-01-25T04:58:49.534Z,99688.28
2024-01-25T05:01:54.404Z,99711.13
2024-01-25T05:04:57.047Z,99710.28
2024-01-25T05:07:59.997Z,99716.44
2024-01-25T05:11:02.589Z,99715.53
2024-01-25T05:14:05.244Z,99722.56
2024-01-25T05:17:07.898Z,99718.19
2024-01-25T05:20:11.163Z,99721.66
2024-01-25T05:23:13.886Z,99719.94
2024-01-25T05:26:17.041Z,99724.31
2024-01-25T05:29:19.738Z,99735.72
2024-01-25T05:32:22.555Z,99723.41
2024-01-25T05:35:25.453Z,99720.75
2024-01-25T05:38:28.417Z,99726.94
2024-01-25T05:41:31.635Z,99733.09
2024-01-25T05:44:34.352Z,99741.00
2024-01-25T05:47:36.939Z,99738.34
2024-01-25T05:50:39.696Z,99747.09
2024-01-25T05:53:42.276Z,99736.56
2024-01-25T05:56:44.941Z,99745.38
2024-01-25T05:59:47.914Z,99747.19
2024-01-25T06:02:50.668Z,99751.56
2024-01-25T06:05:54.009Z,99770.00
2024-01-25T06:09:02.629Z,99764.75
2024-01-25T06:12:14.213Z,99770.88
2024-01-25T06:15:17.044Z,99771.78
2024-01-25T06:18:20.698Z,99770.03
2024-01-25T06:21:24.997Z,99769.13
2024-01-25T06:24:27.754Z,99764.75
2024-01-25T06:27:30.830Z,99774.41
2024-01-25T06:30:33.303Z,99762.09
2024-01-25T06:33:36.253Z,99776.09
2024-01-25T06:36:39.060Z,99787.53
2024-01-25T06:39:42.124Z,99769.91
2024-01-25T06:42:46.305Z,99768.09
2024-01-25T06:45:49.199Z,99770.75
2024-01-25T06:48:52.633Z,99775.16
2024-01-25T06:51:56.099Z,99772.47
2024-01-25T06:54:58.813Z,99751.31
2024-01-25T06:58:01.799Z,99779.50
2024-01-25T07:01:06.085Z,99784.78
2024-01-25T07:04:10.895Z,99781.25
2024-01-25T07:07:13.850Z,99781.25
2024-01-25T07:10:16.756Z,99797.03
2024-01-25T07:13:19.657Z,99786.53
2024-01-25T07:16:23.453Z,99792.66
2024-01-25T07:19:26.195Z,99801.47
2024-01-25T07:22:29.129Z,99812.94
2024-01-25T07:25:31.672Z,99810.31
2024-01-25T07:28:34.536Z,99819.97
2024-01-25T07:31:37.157Z,99825.22
2024-01-25T07:34:40.043Z,99809.44
2024-01-25T07:37:42.585Z,99821.72
2024-01-25T07:40:45.319Z,99828.78
2024-01-25T07:43:47.719Z,99821.75
2024-01-25T07:46:50.496Z,99825.31
2024-01-25T07:49:53.431Z,99812.97
2024-01-25T07:52:56.373Z,99839.31
2024-01-25T07:55:58.750Z,99834.06
2024-01-25T07:59:01.637Z,99835.81
2024-01-25T08:02:04.436Z,99846.38
2024-01-25T08:05:07.549Z,99841.06
2024-01-25T08:08:10.195Z,99847.22
2024-01-25T08:11:13.174Z,99837.50
2024-01-25T08:14:15.704Z,99864.78
2024-01-25T08:17:18.795Z,99837.50
2024-01-25T08:20:21.925Z,99844.63
2024-01-25T08:23:24.941Z,99855.13
2024-01-25T08:26:27.393Z,99849.03
2024-01-25T08:29:30.343Z,99866.59
2024-01-25T08:32:32.836Z,99858.69
2024-01-25T08:35:35.811Z,99864.81
2024-01-25T08:38:38.479Z,99849.03
2024-01-25T08:41:43.438Z,99866.59
2024-01-25T08:44:51.740Z,99868.31
2024-01-25T08:47:54.658Z,99874.50
2024-01-25T08:50:57.458Z,99888.56
2024-01-25T08:54:00.323Z,99892.09
2024-01-25T08:57:02.847Z,99896.47
2024-01-25T09:00:11.806Z,99919.31
2024-01-25T09:03:16.533Z,99914.94
2024-01-25T09:06:19.822Z,99922.00
2024-01-25T09:09:22.327Z,99932.50
2024-01-25T09:12:25.242Z,99919.31
2024-01-25T09:15:27.735Z,99942.22
2024-01-25T09:18:30.553Z,99934.28
2024-01-25T09:21:33.031Z,99941.34
2024-01-25T09:24:37.727Z,99956.34
2024-01-25T09:27:40.398Z,99940.50
2024-01-25T09:30:43.775Z,99955.47
2024-01-25T09:33:46.617Z,99956.41
2024-01-25T09:36:49.597Z,99960.78
2024-01-25T09:39:55.318Z,99966.03
2024-01-25T09:42:58.396Z,99972.19
2024-01-25T09:46:01.741Z,99971.34
2024-01-25T09:49:04.980Z,99977.56
2024-01-25T09:52:08.438Z,99989.00
2024-01-25T09:55:15.902Z,99996.91
2024-01-25T09:58:18.849Z,99994.28
2024-01-25T10:01:21.892Z,100007.44
2024-01-25T10:04:25.863Z,100004.88
2024-01-25T10:07:43.418Z,100021.50
2024-01-25T10:10:46.953Z,100020.63
2024-01-25T10:13:52.413Z,100012.69
2024-01-25T10:16:55.975Z,100010.91
2024-01-25T10:20:00.865Z,100010.97
2024-01-25T10:23:04.381Z,100024.13
2024-01-25T10:26:09.463Z,100017.09
2024-01-25T10:29:12.292Z,100020.69
2024-01-25T10:32:15.848Z,100018.09
2024-01-25T10:35:21.151Z,100017.19
2024-01-25T10:38:26.930Z,100011.94
2024-01-25T10:41:29.905Z,100024.25
2024-01-25T10:44:32.959Z,100033.09
2024-01-25T10:47:37.080Z,100020.81
2024-01-25T10:50:40.823Z,100019.09
2024-01-25T10:53:43.506Z,100038.44
2024-01-25T10:56:48.810Z,100051.66
2024-01-25T10:59:51.360Z,100031.41
2024-01-25T11:02:54.879Z,100039.34
2024-01-25T11:06:13.510Z,100038.50
2024-01-25T11:09:22.452Z,100046.47
2024-01-25T11:12:25.187Z,100027.91
2024-01-25T11:15:38.110Z,100062.19
2024-01-25T11:19:07.153Z,100058.69
2024-01-25T11:22:13.159Z,100067.47
2024-01-25T11:25:21.889Z,100069.25
2024-01-25T11:28:24.769Z,100073.66
2024-01-25T11:31:29.351Z,100066.69
2024-01-25T11:34:33.193Z,100063.13
2024-01-25T11:37:36.091Z,100064.84
2024-01-25T11:40:39.314Z,100088.56
2024-01-25T11:43:42.690Z,100089.50
2024-01-25T11:46:45.684Z,100103.56
2024-01-25T11:49:48.446Z,100115.84
2024-01-25T11:52:52.244Z,100123.59
2024-01-25T11:55:57.189Z,100141.28
2024-01-25T11:59:00.368Z,100152.69
2024-01-25T12:02:03.218Z,100153.34
2024-01-25T12:05:06.966Z,100174.31
2024-01-25T12:08:15.065Z,100189.97
2024-01-25T12:11:20.251Z,100194.09
2024-01-25T12:14:25.546Z,100209.84
2024-01-25T12:17:30.687Z,100222.88
2024-01-25T12:20:33.665Z,100226.31
2024-01-25T12:23:38.552Z,100239.44
2024-01-25T12:26:43.027Z,100249.75
2024-01-25T12:29:45.925Z,100252.28
2024-01-25T12:32:51.237Z,100257.38
2024-01-25T12:35:55.750Z,100264.50
2024-01-25T12:38:58.432Z,100270.63
2024-01-25T12:42:05.293Z,100280.50
2024-01-25T12:45:08.362Z,100273.22
2024-01-25T12:48:11.660Z,100266.84
2024-01-25T12:51:14.379Z,100265.97
2024-01-25T12:54:17.302Z,100271.44
2024-01-25T12:57:20.253Z,100278.38
2024-01-25T13:00:24.010Z,100275.03
2024-01-25T13:03:26.891Z,100286.34
2024-01-25T13:06:29.900Z,100273.97
2024-01-25T13:09:35.091Z,100288.84
2024-01-25T13:12:38.291Z,100293.44
2024-01-25T13:15:40.775Z,100309.00
2024-01-25T13:18:43.706Z,100308.81
2024-01-25T13:21:46.494Z,100319.22
2024-01-25T13:24:49.465Z,100316.44
2024-01-25T13:27:53.273Z,100327.84
2024-01-25T13:30:56.382Z,100321.50
2024-01-25T13:33:59.191Z,100347.13
2024-01-25T13:37:02.180Z,100348.75
2024-01-25T13:40:05.682Z,100360.03
2024-01-25T13:43:08.545Z,100368.13
2024-01-25T13:46:11.050Z,100355.09
2024-01-25T13:49:14.002Z,100365.09
2024-01-25T13:52:20.429Z,100372.38
2024-01-25T13:55:23.345Z,100372.25
2024-01-25T13:58:25.691Z,100374.75
2024-01-25T14:01:29.845Z,100379.78
2024-01-25T14:04:32.415Z,100389.09
2024-01-25T14:07:35.804Z,100401.16
2024-01-25T14:10:38.744Z,100419.47
2024-01-25T14:13:42.184Z,100425.38
2024-01-25T14:16:45.057Z,100422.59
2024-01-25T14:19:49.831Z,100427.06
2024-01-25T14:22:52.709Z,100443.81
2024-01-25T14:25:55.610Z,100433.19
2024-01-25T14:28:58.077Z,100432.34
2024-01-25T14:32:03.906Z,100447.22
2024-01-25T14:35:07.129Z,100453.22
2024-01-25T14:38:10.457Z,100461.88
2024-01-25T14:41:13.082Z,100459.16
2024-01-25T14:44:16.130Z,100476.03
2024-01-25T14:47:23.564Z,100454.63
2024-01-25T14:50:26.728Z,100477.59
2024-01-25T14:53:29.580Z,100462.31
2024-01-25T14:56:32.413Z,100488.81
2024-01-25T14:59:34.864Z,100496.84
2024-01-25T15:02:37.691Z,100493.25
2024-01-25T15:05:40.272Z,100497.56
2024-01-25T15:08:43.044Z,100509.75
2024-01-25T15:11:45.595Z,100498.25
2024-01-25T15:14:48.469Z,100512.38
2024-01-25T15:17:51.055Z,100514.81
2024-01-25T15:20:55.150Z,100526.03
2024-01-25T15:23:58.119Z,100534.94
2024-01-25T15:27:00.951Z,100543.66
2024-01-25T15:30:03.642Z,100550.91
2024-01-25T15:33:07.230Z,100564.66
2024-01-25T15:36:09.894Z,100571.69
2024-01-25T15:39:12.879Z,100576.03
2024-01-25T15:42:15.389Z,100580.44
2024-01-25T15:45:19.495Z,100576.13
2024-01-25T15:48:22.115Z,100594.53
2024-01-25T15:51:25.448Z,100594.66
2024-01-25T15:54:28.048Z,100595.59
2024-01-25T15:57:32.683Z,100605.78
2024-01-25T16:00:36.677Z,100595.94
2024-01-25T16:03:40.947Z,100613.53
2024-01-25T16:06:43.730Z,100610.69
2024-01-25T16:09:48.035Z,100618.50
2024-01-25T16:12:51.199Z,100622.00
2024-01-25T16:15:54.807Z,100621.22
2024-01-25T16:18:57.414Z,100621.91
2024-01-25T16:22:00.224Z,100632.34
2024-01-25T16:25:02.936Z,100648.06
2024-01-25T16:28:06.270Z,100632.88
2024-01-25T16:31:10.231Z,100656.63
2024-01-25T16:34:13.270Z,100647.75
2024-01-25T16:37:15.991Z,100665.38
2024-01-25T16:40:19.379Z,100699.84
2024-01-25T16:43:21.998Z,100691.94
2024-01-25T16:46:25.106Z,100695.31
2024-01-25T16:49:29.886Z,100714.75
2024-01-25T16:52:32.997Z,100717.25
2024-01-25T16:55:35.540Z,100726.91
2024-01-25T16:58:38.383Z,100732.09
2024-01-25T17:01:41.263Z,100744.97
2024-01-25T17:04:44.556Z,100734.72
2024-01-25T17:07:47.225Z,100730.44
2024-01-25T17:10:50.090Z,100739.00
2024-01-25T17:13:52.788Z,100748.81
2024-01-25T17:16:56.083Z,100741.69
2024-01-25T17:20:01.829Z,100754.06
2024-01-25T17:23:07.117Z,100749.38
2024-01-25T17:26:09.821Z,100749.59
2024-01-25T17:29:12.838Z,100760.19
2024-01-25T17:32:15.499Z,100750.44
2024-01-25T17:35:18.356Z,100762.94
2024-01-25T17:38:20.954Z,100756.34
2024-01-25T17:41:24.146Z,100771.44
2024-01-25T17:44:26.855Z,100760.59
2024-01-25T17:47:30.027Z,100754.38
2024-01-25T17:50:32.649Z,100765.84
2024-01-25T17:53:36.810Z,100768.34
2024-01-25T17:56:41.412Z,100774.59
2024-01-25T17:59:44.425Z,100783.25
2024-01-25T18:02:47.096Z,100783.03
2024-01-25T18:05:50.166Z,100786.66
2024-01-25T18:08:52.655Z,100788.91
2024-01-25T18:11:55.638Z,100803.13
2024-01-25T18:14:58.226Z,100791.63
2024-01-25T18:18:01.411Z,100804.16
2024-01-25T18:21:04.239Z,100812.03
2024-01-25T18:24:07.912Z,100818.78
2024-01-25T18:27:10.608Z,100812.41
2024-01-25T18:30:14.953Z,100822.03
2024-01-25T18:33:18.392Z,100845.13
2024-01-25T18:36:21.860Z,100852.94
2024-01-25T18:39:25.581Z,100858.00
2024-01-25T18:42:29.244Z,100866.81
2024-01-25T18:45:32.952Z,100862.28
2024-01-25T18:48:37.199Z,100882.41
2024-01-25T18:51:41.142Z,100881.41
2024-01-25T18:54:47.051Z,100877.56
2024-01-25T18:57:51.541Z,100876.44
2024-01-25T19:00:58.208Z,100870.50
2024-01-25T19:04:03.964Z,100889.75
2024-01-25T19:07:08.909Z,100878.25
2024-01-25T19:10:12.516Z,100886.25
2024-01-25T19:13:17.166Z,100880.88
2024-01-25T19:16:21.260Z,100891.88
2024-01-25T19:19:25.376Z,100892.81
2024-01-25T19:22:30.953Z,100909.53
2024-01-25T19:25:34.960Z,100903.28
2024-01-25T19:28:38.574Z,100898.13
2024-01-25T19:31:42.399Z,100903.00
2024-01-25T19:34:45.794Z,100898.91
2024-01-25T19:37:49.986Z,100904.66
2024-01-25T19:40:53.387Z,100900.13
2024-01-25T19:43:57.761Z,100906.28
2024-01-25T19:47:01.528Z,100920.63
2024-01-25T19:50:06.348Z,100913.25
2024-01-25T19:53:10.159Z,100918.75
2024-01-25T19:56:17.545Z,100910.88
2024-01-25T19:59:23.283Z,100923.03
2024-01-25T20:02:27.705Z,100913.97
2024-01-25T20:05:33.848Z,100929.56
2024-01-25T20:08:38.411Z,100935.25
2024-01-25T20:11:42.233Z,100931.41
2024-01-25T20:14:47.306Z,100940.22
2024-01-25T20:17:51.432Z,100941.19
2024-01-25T20:20:57.259Z,100944.91
2024-01-25T20:24:02.881Z,100929.81
2024-01-25T20:27:07.511Z,100932.44
2024-01-25T20:30:12.847Z,100934.84
2024-01-25T20:33:19.266Z,100929.59
2024-01-25T20:36:23.228Z,100915.31
2024-01-25T20:39:28.220Z,100930.34
2024-01-25T20:42:32.143Z,100939.97
2024-01-25T20:45:36.674Z,100937.34
2024-01-25T20:48:44.715Z,100949.06
2024-01-25T20:51:48.473Z,100943.69
2024-01-25T20:54:52.405Z,100943.56
2024-01-25T20:57:56.134Z,100938.09
2024-01-25T21:00:59.010Z,100948.81
2024-01-25T21:04:02.695Z,100967.28
2024-01-25T21:07:05.485Z,100955.63
2024-01-25T21:10:10.358Z,100951.44
2024-01-25T21:13:13.253Z,100952.94
2024-01-25T21:16:17.516Z,100961.81
2024-01-25T21:19:20.569Z,100974.50
2024-01-25T21:22:23.499Z,100970.22
2024-01-25T21:25:26.747Z,100979.22
2024-01-25T21:28:29.778Z,100980.88
2024-01-25T21:31:32.420Z,100984.34
2024-01-25T21:34:35.458Z,100986.41
2024-01-25T21:37:38.103Z,100989.72
2024-01-25T21:40:41.116Z,100978.38
2024-01-25T21:43:43.866Z,100985.88
2024-01-25T21:46:47.083Z,101002.00
2024-01-25T21:49:49.815Z,101003.53
2024-01-25T21:52:52.591Z,100993.72
2024-01-25T21:55:55.817Z,101010.34
2024-01-25T21:58:59.203Z,101010.28
2024-01-25T22:02:01.704Z,101006.06
2024-01-25T22:05:04.760Z,101005.63
2024-01-25T22:08:07.466Z,101021.66
2024-01-25T22:11:10.217Z,101010.81
2024-01-25T22:14:13.059Z,101011.22
2024-01-25T22:17:15.937Z,101012.06
2024-01-25T22:20:18.540Z,101018.44
2024-01-25T22:23:21.484Z,101016.03
2024-01-25T22:26:24.165Z,101011.06
2024-01-25T22:29:26.935Z,101018.66
2024-01-25T22:32:29.776Z,101031.00
2024-01-25T22:35:32.630Z,101040.59
2024-01-25T22:38:34.982Z,101047.63
2024-01-25T22:41:37.768Z,101045.72
2024-01-25T22:44:40.389Z,101057.06
2024-01-25T22:47:43.265Z,101057.22
2024-01-25T22:50:45.789Z,101063.50
2024-01-25T22:53:48.763Z,101075.63
2024-01-25T22:56:51.428Z,101065.41
2024-01-25T22:59:54.354Z,101075.06
2024-01-25T23:02:59.329Z,101078.34
2024-01-25T23:06:02.350Z,101078.66
2024-01-25T23:09:05.369Z,101085.75
2024-01-25T23:12:09.393Z,101102.66
2024-01-25T23:15:12.190Z,101101.63
2024-01-25T23:18:15.110Z,101093.69
2024-01-25T23:21:18.076Z,101106.97
2024-01-25T23:24:20.985Z,101112.03
2024-01-25T23:27:23.369Z,101109.66
2024-01-25T23:30:26.228Z,101116.81
2024-01-25T23:33:28.756Z,101117.72
2024-01-25T23:36:31.866Z,101127.72
2024-01-25T23:39:34.576Z,101123.09
2024-01-25T23:42:38.506Z,101140.25
2024-01-25T23:45:41.238Z,101119.78
2024-01-25T23:48:44.207Z,101137.81
2024-01-25T23:51:47.445Z,101134.13
2024-01-25T23:54:50.366Z,101147.47
2024-01-25T23:57:53.754Z,101152.06
